Rock Port, Missouri
Current Conditions -  °F | °C
As of 12:15 AM on Friday 19 Dec 2014 (Local Time) from KAFK Reporting Station
Haze Haze  
Wind Chill: 29°   Ceiling: 700
Heat Index: 29°   Visibility: 5mi
Dew Point: 29°   Wind: 3mph
Humidity: 100%   Direction: 190°S
Pressure: 30.26"   Gusts: NA
Location:  40.41°N, 95.52°W
Report Text: KAFK 190615Z AUTO 19003KT 5SM BR OVC007 M01/M01 A3026 RMK AO2 T10141014
Loading
Personal Weather Stations






























Interactive Weather Map New forecast layout! Learn more

10-Day Weather Forecast

Advertisements
Track Severe Weather on mobile